CRA weather

Cinera Airport
CĂșcuta, Norte de Santander Department, Colombia

Public forecast

Using degrees Celsius for public forecast. Weather courtesy of forecast.io.

METAR (pilot weather report)

Report is more than 6 hours old.

Closest report is La Fria Airport, 13.8 nm (25.6 km) E. Retrieved 2017/09/20 18:00 UTC (1 year ago):

SVLF 201800Z 00000KT 9999 SCT040 XX/XX Q1010

TAF (pilot weather forecast)

Forecast is more than 12 hours old.

Closest forecast is Camilo Daza International Airport, 16.4 nm (30.3 km) S. Retrieved 2019/03/16 00:00 UTC (4 days ago):

TAF SKCC 152300Z 1600/1624 35009KT 9000 SCT020TCU SCT090 TEMPO 1600/1602 -RA BECMG 1602/1604 VRB02KT 8000 TEMPO 1609/1613 5000 BR SCT015 TEMPO 1619/1623 36010KT TX32/1619Z TN23/1611Z